createdAt,value
2018-02-21T00:03:57.748Z,70.83
2018-02-21T00:08:58.720Z,76.97
2018-02-21T00:14:00.430Z,83.13
2018-02-21T00:19:01.391Z,81.63
2018-02-21T00:24:03.110Z,83.40
2018-02-21T00:29:04.071Z,88.00
2018-02-21T00:34:05.783Z,75.60
2018-02-21T00:39:07.598Z,92.77
2018-02-21T00:44:08.519Z,78.63
2018-02-21T00:49:09.487Z,79.37
2018-02-21T00:54:10.460Z,87.50
2018-02-21T00:59:11.443Z,94.47
2018-02-21T01:04:12.421Z,74.27
2018-02-21T01:09:13.391Z,71.37
2018-02-21T01:14:14.359Z,83.87
2018-02-21T01:19:15.347Z,76.70
2018-02-21T01:24:16.329Z,81.40
2018-02-21T01:29:17.302Z,78.43
2018-02-21T01:34:19.032Z,88.17
2018-02-21T01:39:20.000Z,71.13
2018-02-21T01:44:20.985Z,75.67
2018-02-21T01:49:21.977Z,82.40
2018-02-21T01:54:22.992Z,87.50
2018-02-21T01:59:23.992Z,81.37
2018-02-21T02:04:24.992Z,87.37
2018-02-21T02:09:26.743Z,92.20
2018-02-21T02:14:27.732Z,91.20
2018-02-21T02:19:28.768Z,92.17
2018-02-21T02:24:29.752Z,83.30
2018-02-21T02:29:30.743Z,87.13
2018-02-21T02:34:31.743Z,88.90
2018-02-21T02:39:45.237Z,84.27
2018-02-21T02:44:46.229Z,97.87
2018-02-21T02:49:47.217Z,92.60
2018-02-21T02:54:48.215Z,90.43
2018-02-21T02:59:49.963Z,94.23
2018-02-21T03:04:50.959Z,88.93
2018-02-21T03:09:51.951Z,97.37
2018-02-21T03:14:52.943Z,95.97
2018-02-21T03:19:53.944Z,100.97
2018-02-21T03:24:55.684Z,93.07
2018-02-21T03:29:56.697Z,92.70
2018-02-21T03:34:57.676Z,90.00
2018-02-21T03:39:58.699Z,99.37
2018-02-21T03:45:00.432Z,101.00
2018-02-21T03:50:01.674Z,105.13
2018-02-21T03:55:02.672Z,96.00
2018-02-21T04:00:04.412Z,116.60
2018-02-21T04:05:05.642Z,103.00
2018-02-21T04:10:06.615Z,110.77
2018-02-21T04:15:07.619Z,103.07
2018-02-21T04:20:09.344Z,108.53
2018-02-21T04:25:10.327Z,111.40
2018-02-21T04:30:11.644Z,110.43
2018-02-21T04:35:12.647Z,105.37
2018-02-21T04:40:13.880Z,106.07
2018-02-21T04:45:14.879Z,136.23
2018-02-21T04:50:16.183Z,122.27
2018-02-21T05:00:57.742Z,113.80
2018-02-21T05:05:58.740Z,117.80
2018-02-21T05:10:59.724Z,109.00
2018-02-21T05:16:01.039Z,118.17
2018-02-21T05:21:02.032Z,109.03
2018-02-21T05:26:03.255Z,119.57
2018-02-21T05:31:04.255Z,115.80
2018-02-21T05:36:05.303Z,118.40
2018-02-21T05:41:06.311Z,115.93
2018-02-21T05:46:08.048Z,120.47
2018-02-21T05:51:09.044Z,123.43
2018-02-21T05:56:10.056Z,127.67
2018-02-21T06:01:11.069Z,129.70
2018-02-21T06:06:12.073Z,133.70
2018-02-21T06:11:13.092Z,134.37
2018-02-21T06:16:29.041Z,139.47
2018-02-21T06:21:30.780Z,133.37
2018-02-21T06:26:31.782Z,136.33
2018-02-21T06:31:32.778Z,120.70
2018-02-21T06:36:33.779Z,143.70
2018-02-21T06:41:34.806Z,111.07
2018-02-21T06:46:35.817Z,116.50
2018-02-21T06:51:36.836Z,123.17
2018-02-21T06:56:37.831Z,122.17
2018-02-21T07:01:39.559Z,117.37
2018-02-21T07:06:40.570Z,104.50
2018-02-21T07:11:41.571Z,109.93
2018-02-21T07:16:42.569Z,118.97
2018-02-21T07:21:43.560Z,104.60
2018-02-21T07:26:45.309Z,105.63
2018-02-21T07:31:46.317Z,111.33
2018-02-21T07:36:47.319Z,97.77
2018-02-21T07:41:49.079Z,99.77
2018-02-21T07:46:50.083Z,98.67
2018-02-21T07:51:51.092Z,90.87
2018-02-21T07:56:52.853Z,108.30
2018-02-21T08:01:53.860Z,96.20
2018-02-21T08:06:54.855Z,85.20
2018-02-21T08:11:56.591Z,93.00
2018-02-21T08:16:57.609Z,83.57
2018-02-21T08:21:58.615Z,79.57
2018-02-21T08:26:59.592Z,86.13
2018-02-21T08:32:00.596Z,83.47
2018-02-21T08:37:02.332Z,78.07
2018-02-21T08:42:03.332Z,79.53
2018-02-21T08:47:04.358Z,79.27
2018-02-21T08:52:06.131Z,72.77
2018-02-21T08:57:07.139Z,74.40
2018-02-21T09:02:08.872Z,75.30
2018-02-21T09:07:09.879Z,68.23
2018-02-21T09:12:10.895Z,64.87
2018-02-21T09:17:12.628Z,75.07
2018-02-21T09:22:13.620Z,69.70
2018-02-21T09:27:14.609Z,69.93
2018-02-21T09:32:15.648Z,62.73
2018-02-21T09:37:16.664Z,65.90
2018-02-21T09:42:17.662Z,64.10
2018-02-21T09:47:18.686Z,63.17
2018-02-21T09:52:19.694Z,66.97
2018-02-21T09:57:20.731Z,60.90
2018-02-21T10:02:21.732Z,59.83
2018-02-21T10:07:23.483Z,62.07
2018-02-21T10:12:24.483Z,67.80
2018-02-21T10:17:25.486Z,61.47
2018-02-21T10:22:26.483Z,69.17
2018-02-21T10:27:27.501Z,64.93
2018-02-21T10:32:28.523Z,74.60
2018-02-21T10:37:29.515Z,58.13
2018-02-21T10:42:30.519Z,57.70
2018-02-21T10:47:32.254Z,53.90
2018-02-21T10:52:33.251Z,60.60
2018-02-21T10:57:34.252Z,59.67
2018-02-21T11:02:35.248Z,55.57
2018-02-21T11:07:37.014Z,56.33
2018-02-21T11:12:38.012Z,42.90
2018-02-21T11:17:39.017Z,56.40
2018-02-21T11:22:39.996Z,51.90
2018-02-21T11:27:41.003Z,53.47
2018-02-21T11:32:42.744Z,56.03
2018-02-21T11:37:43.745Z,49.77
2018-02-21T11:42:44.746Z,48.87
2018-02-21T11:47:45.737Z,56.63
2018-02-21T11:52:46.731Z,54.30
2018-02-21T11:57:48.477Z,50.97
2018-02-21T12:02:49.484Z,50.07
2018-02-21T12:07:50.498Z,48.00
2018-02-21T12:12:52.228Z,48.90
2018-02-21T12:17:53.215Z,50.97
2018-02-21T12:22:54.216Z,50.80
2018-02-21T12:27:55.204Z,58.43
2018-02-21T12:32:56.991Z,47.97
2018-02-21T12:37:57.987Z,50.30
2018-02-21T12:42:58.976Z,53.33
2018-02-21T12:47:59.971Z,45.37
2018-02-21T12:53:01.188Z,50.00
2018-02-21T12:58:02.916Z,57.40
2018-02-21T13:03:03.912Z,57.70
2018-02-21T13:08:04.899Z,49.80
2018-02-21T13:13:05.891Z,46.70
2018-02-21T13:18:06.881Z,53.30
2018-02-21T13:23:07.888Z,50.80
2018-02-21T13:28:09.635Z,53.70
2018-02-21T13:33:10.646Z,50.20
2018-02-21T13:38:11.643Z,47.73
2018-02-21T13:43:12.644Z,38.33
2018-02-21T13:48:14.400Z,42.50
2018-02-21T13:53:15.403Z,46.53
2018-02-21T13:58:17.152Z,41.80
2018-02-21T14:03:18.163Z,40.40
2018-02-21T14:08:19.188Z,40.00
2018-02-21T14:13:20.944Z,48.97
2018-02-21T14:18:21.940Z,36.47
2018-02-21T14:23:22.946Z,47.30
2018-02-21T14:28:24.667Z,45.10
2018-02-21T14:33:25.668Z,43.60
2018-02-21T14:38:26.671Z,46.17
2018-02-21T14:43:27.681Z,46.10
2018-02-21T14:48:28.672Z,38.60
2018-02-21T14:53:29.668Z,42.20
2018-02-21T14:58:31.424Z,37.90
2018-02-21T15:03:39.352Z,39.27
2018-02-21T15:08:40.339Z,35.70
2018-02-21T15:13:41.327Z,49.93
2018-02-21T15:18:42.336Z,38.10
2018-02-21T15:23:43.323Z,29.60
2018-02-21T15:28:44.328Z,35.60
2018-02-21T15:33:46.067Z,32.73
2018-02-21T15:38:47.142Z,37.07
2018-02-21T15:43:48.072Z,39.93
2018-02-21T15:48:49.070Z,33.47
2018-02-21T15:53:57.812Z,38.13
2018-02-21T15:58:58.806Z,35.70
2018-02-21T16:03:59.800Z,35.27
2018-02-21T16:09:01.520Z,31.77
2018-02-21T16:14:02.508Z,37.47
2018-02-21T16:19:03.539Z,39.13
2018-02-21T16:24:04.537Z,52.23
2018-02-21T16:29:05.562Z,42.27
2018-02-21T16:34:07.265Z,44.70
2018-02-21T16:39:08.265Z,36.07
2018-02-21T16:44:09.290Z,38.30
2018-02-21T16:49:10.253Z,35.40
2018-02-21T16:54:15.145Z,34.53
2018-02-21T16:59:16.160Z,40.80
2018-02-21T17:04:17.226Z,38.90
2018-02-21T17:09:18.963Z,39.03
2018-02-21T17:14:19.972Z,44.43
2018-02-21T17:19:21.966Z,39.00
2018-02-21T17:24:22.960Z,39.20
2018-02-21T17:29:23.959Z,45.20
2018-02-21T17:34:24.977Z,41.70
2018-02-21T17:39:26.053Z,38.57
2018-02-21T17:44:28.798Z,42.93
2018-02-21T17:49:30.131Z,40.43
2018-02-21T17:54:31.128Z,47.53
2018-02-21T17:59:32.125Z,44.77
2018-02-21T18:04:33.144Z,42.30
2018-02-21T18:09:34.140Z,46.93
2018-02-21T18:14:35.147Z,45.70
2018-02-21T18:19:36.164Z,39.90
2018-02-21T18:24:37.903Z,43.17
2018-02-21T18:29:38.915Z,51.17
2018-02-21T18:34:39.939Z,40.43
2018-02-21T18:39:40.944Z,46.67
2018-02-21T18:44:41.931Z,45.50
2018-02-21T18:49:42.937Z,50.83
2018-02-21T18:54:43.927Z,50.83
2018-02-21T18:59:44.908Z,48.70
2018-02-21T19:04:45.928Z,48.90
2018-02-21T19:09:48.310Z,53.53
2018-02-21T19:14:51.354Z,54.90
2018-02-21T19:19:52.593Z,54.40
2018-02-21T19:24:54.398Z,52.60
2018-02-21T19:29:55.400Z,51.23
2018-02-21T19:34:56.381Z,65.77
2018-02-21T19:39:57.355Z,54.63
2018-02-21T19:44:58.336Z,63.63
2018-02-21T19:49:59.316Z,69.00
2018-02-21T19:55:00.316Z,70.07
2018-02-21T20:00:01.455Z,79.50
2018-02-21T20:05:03.180Z,77.63
2018-02-21T20:10:04.167Z,69.33
2018-02-21T20:15:05.152Z,69.43
2018-02-21T20:20:06.204Z,56.40
2018-02-21T20:25:08.020Z,61.20
2018-02-21T20:30:09.036Z,63.93
2018-02-21T20:35:10.293Z,55.57
2018-02-21T20:40:11.279Z,62.20
2018-02-21T20:45:12.280Z,60.93
2018-02-21T20:50:13.276Z,60.57
2018-02-21T20:55:14.271Z,64.37
2018-02-21T21:00:15.311Z,63.37
2018-02-21T21:05:16.440Z,66.10
2018-02-21T21:10:17.440Z,57.73
2018-02-21T21:15:19.156Z,59.57
2018-02-21T21:20:20.151Z,43.97
2018-02-21T21:25:28.165Z,64.47
2018-02-21T21:30:29.156Z,66.67
2018-02-21T21:35:30.911Z,68.17
2018-02-21T21:40:31.911Z,60.00
2018-02-21T21:45:32.919Z,68.20
2018-02-21T21:50:34.664Z,71.07
2018-02-21T21:55:35.664Z,55.17
2018-02-21T22:00:36.648Z,64.10
2018-02-21T22:05:37.648Z,63.20
2018-02-21T22:10:38.635Z,54.97
2018-02-21T22:15:39.636Z,58.37
2018-02-21T22:20:40.655Z,54.27
2018-02-21T22:25:41.667Z,63.07
2018-02-21T22:30:42.659Z,57.80
2018-02-21T22:35:43.654Z,55.70
2018-02-21T22:40:44.648Z,58.57
2018-02-21T22:45:46.376Z,51.10
2018-02-21T22:50:47.361Z,48.77
2018-02-21T22:55:48.356Z,63.00
2018-02-21T23:00:49.368Z,56.97
2018-02-21T23:05:50.375Z,59.63
2018-02-21T23:10:52.117Z,59.80
2018-02-21T23:15:53.103Z,60.00
2018-02-21T23:20:54.104Z,60.10
2018-02-21T23:25:55.090Z,72.93
2018-02-21T23:30:56.076Z,61.07
2018-02-21T23:35:57.065Z,68.83
2018-02-21T23:40:58.051Z,64.53
2018-02-21T23:45:59.035Z,67.20
2018-02-21T23:51:00.025Z,66.23
2018-02-21T23:56:01.024Z,70.77
